Siletz, Oregon
Current Conditions -  °F | °C
As of 10:35 AM on Thursday 23 Oct 2014 (Local Time) from KONP Reporting Station
Haze Haze  
Wind Chill: 57°   Ceiling: NA
Heat Index: 57°   Visibility: 3mi
Dew Point: 55°   Wind: 13mph
Humidity: 94%   Direction: 200°SSW
Pressure: 29.9"   Gusts: NA
Location:  44.72°N, 123.92°W
Report Text: KONP 231735Z AUTO 20011KT 3SM BR 14/13 A2990 RMK AO2 SKY OBSCURED
Loading
Personal Weather Stations






























Interactive Weather Map
Tropical Storm Tracking
New forecast layout! Learn more

10-Day Weather Forecast

Advertisements
Track Severe Weather on mobile